Aviation Digital Data Service (ADDS)

Output produced by METARs form (1915 UTC 19 August 2019)
found at http://www.aviationweather.gov/metar/data/
 
Forecast for: GGOV (BISSAU (CIV/MIL), GW)
Text: TAF GGOV 191700Z 1918/2018 26004KT 9999 SCT014
Forecast period: 1800 UTC 19 August 2019 to 1800 UTC 20 August 2019
Forecast type: FROM: standard forecast or significant change
Winds: from the W (260 degrees) at 5 MPH (4 knots; 2.1 m/s)
Visibility: 6 or more miles 10+ km)
Ceiling: at least 12,000 feet AGL
Clouds: scattered clouds at 1400 feet AGL
Weather: no significant weather forecast for this period
Text: PROB30
Forecast period: 2200 UTC 19 August 2019 to 0400 UTC 20 August 2019
Forecast type: TEMPORARY: The following changes expected for less than half the time period
Visibility: 2.49 miles (4.01 km)
Ceiling: 1400 feet AGL
Clouds: scattered clouds at 500 feet AGL
broken clouds at 1400 feet AGL
Weather: RA  (moderate rain)